sensor_id;sensor_type;location;lat;lon;timestamp;pressure;altitude;pressure_sealevel;temperature;humidity
28626;BME280;18905;42.668;23.364;2023-07-20T00:01:02;94764.78;;;27.70;74.08
28626;BME280;18905;42.668;23.364;2023-07-20T00:03:27;94778.56;;;27.06;78.55
28626;BME280;18905;42.668;23.364;2023-07-20T00:05:52;94766.63;;;26.74;80.12
28626;BME280;18905;42.668;23.364;2023-07-20T00:08:18;94768.88;;;26.40;84.99
28626;BME280;18905;42.668;23.364;2023-07-20T00:10:43;94768.53;;;26.77;85.33
28626;BME280;18905;42.668;23.364;2023-07-20T00:13:12;94763.06;;;27.28;75.18
28626;BME280;18905;42.668;23.364;2023-07-20T00:15:37;94764.47;;;27.01;78.47
28626;BME280;18905;42.668;23.364;2023-07-20T00:18:06;94775.66;;;27.13;75.59
28626;BME280;18905;42.668;23.364;2023-07-20T00:20:31;94771.03;;;26.52;83.38
28626;BME280;18905;42.668;23.364;2023-07-20T00:22:57;94780.91;;;27.08;78.60
28626;BME280;18905;42.668;23.364;2023-07-20T00:25:23;94770.78;;;26.82;80.46
28626;BME280;18905;42.668;23.364;2023-07-20T00:27:49;94783.50;;;26.99;79.32
28626;BME280;18905;42.668;23.364;2023-07-20T00:30:15;94781.19;;;27.13;78.15
28626;BME280;18905;42.668;23.364;2023-07-20T00:32:42;94778.78;;;26.96;79.47
28626;BME280;18905;42.668;23.364;2023-07-20T00:38:04;94781.88;;;26.82;80.11
28626;BME280;18905;42.668;23.364;2023-07-20T00:40:35;94784.50;;;26.50;83.96
28626;BME280;18905;42.668;23.364;2023-07-20T00:43:00;94786.78;;;25.93;89.10
28626;BME280;18905;42.668;23.364;2023-07-20T00:45:26;94761.72;;;25.04;97.22
28626;BME280;18905;42.668;23.364;2023-07-20T00:47:52;94771.09;;;24.84;100.00
28626;BME280;18905;42.668;23.364;2023-07-20T00:50:17;94767.38;;;24.67;100.00
28626;BME280;18905;42.668;23.364;2023-07-20T00:52:43;94763.13;;;24.59;100.00
28626;BME280;18905;42.668;23.364;2023-07-20T00:55:09;94757.88;;;24.38;100.00
28626;BME280;18905;42.668;23.364;2023-07-20T00:57:34;94748.22;;;24.20;100.00
28626;BME280;18905;42.668;23.364;2023-07-20T01:00:00;94741.50;;;24.21;100.00
28626;BME280;18905;42.668;23.364;2023-07-20T01:02:25;94739.97;;;23.79;100.00
28626;BME280;18905;42.668;23.364;2023-07-20T01:04:53;94750.78;;;24.04;100.00
28626;BME280;18905;42.668;23.364;2023-07-20T01:07:43;94753.53;;;24.04;100.00
28626;BME280;18905;42.668;23.364;2023-07-20T01:10:24;94755.91;;;24.02;100.00
28626;BME280;18905;42.668;23.364;2023-07-20T01:12:52;94772.25;;;23.79;100.00
28626;BME280;18905;42.668;23.364;2023-07-20T01:15:18;94766.56;;;23.56;100.00
28626;BME280;18905;42.668;23.364;2023-07-20T01:17:43;94788.25;;;23.54;100.00
28626;BME280;18905;42.668;23.364;2023-07-20T01:20:13;94773.75;;;23.43;100.00
28626;BME280;18905;42.668;23.364;2023-07-20T01:29:17;94760.03;;;24.20;100.00
28626;BME280;18905;42.668;23.364;2023-07-20T01:31:51;94755.66;;;24.56;100.00
28626;BME280;18905;42.668;23.364;2023-07-20T01:34:18;94766.03;;;24.15;100.00
28626;BME280;18905;42.668;23.364;2023-07-20T01:39:20;94692.53;;;23.14;100.00
28626;BME280;18905;42.668;23.364;2023-07-20T01:41:49;94652.22;;;22.86;100.00
28626;BME280;18905;42.668;23.364;2023-07-20T01:44:15;94643.00;;;22.59;100.00
28626;BME280;18905;42.668;23.364;2023-07-20T01:46:41;94625.66;;;22.69;100.00
28626;BME280;18905;42.668;23.364;2023-07-20T01:49:06;94623.75;;;22.63;100.00
28626;BME280;18905;42.668;23.364;2023-07-20T01:51:32;94638.66;;;23.13;100.00
28626;BME280;18905;42.668;23.364;2023-07-20T01:53:58;94687.75;;;23.62;100.00
28626;BME280;18905;42.668;23.364;2023-07-20T01:56:25;94658.94;;;23.33;100.00
28626;BME280;18905;42.668;23.364;2023-07-20T01:58:50;94688.50;;;23.66;100.00
28626;BME280;18905;42.668;23.364;2023-07-20T02:01:16;94646.47;;;23.14;100.00
28626;BME280;18905;42.668;23.364;2023-07-20T02:03:42;94648.06;;;23.93;100.00
28626;BME280;18905;42.668;23.364;2023-07-20T02:06:08;94636.91;;;24.03;100.00
28626;BME280;18905;42.668;23.364;2023-07-20T02:08:33;94633.06;;;23.97;100.00
28626;BME280;18905;42.668;23.364;2023-07-20T02:10:59;94616.44;;;24.31;100.00
28626;BME280;18905;42.668;23.364;2023-07-20T02:13:25;94654.28;;;24.87;100.00
28626;BME280;18905;42.668;23.364;2023-07-20T02:15:51;94691.59;;;24.95;100.00
28626;BME280;18905;42.668;23.364;2023-07-20T02:18:17;94748.28;;;25.33;100.00
28626;BME280;18905;42.668;23.364;2023-07-20T02:20:42;94650.59;;;24.70;100.00
28626;BME280;18905;42.668;23.364;2023-07-20T02:23:08;94732.94;;;25.28;100.00
28626;BME280;18905;42.668;23.364;2023-07-20T02:25:33;94701.47;;;24.69;100.00
28626;BME280;18905;42.668;23.364;2023-07-20T02:27:59;94676.38;;;24.30;100.00
28626;BME280;18905;42.668;23.364;2023-07-20T02:30:24;94606.72;;;24.23;100.00
28626;BME280;18905;42.668;23.364;2023-07-20T02:32:50;94624.75;;;24.54;100.00
28626;BME280;18905;42.668;23.364;2023-07-20T02:35:16;94615.53;;;24.67;100.00
28626;BME280;18905;42.668;23.364;2023-07-20T02:37:42;94684.28;;;25.11;100.00
28626;BME280;18905;42.668;23.364;2023-07-20T02:40:08;94593.69;;;24.76;100.00
28626;BME280;18905;42.668;23.364;2023-07-20T02:42:34;94712.34;;;25.56;100.00
28626;BME280;18905;42.668;23.364;2023-07-20T02:45:01;94614.84;;;25.09;100.00
28626;BME280;18905;42.668;23.364;2023-07-20T02:47:30;94618.81;;;25.08;100.00
28626;BME280;18905;42.668;23.364;2023-07-20T02:49:56;94598.97;;;24.90;100.00
28626;BME280;18905;42.668;23.364;2023-07-20T02:52:22;94601.69;;;24.94;100.00
28626;BME280;18905;42.668;23.364;2023-07-20T02:54:48;94669.13;;;25.19;100.00
28626;BME280;18905;42.668;23.364;2023-07-20T02:57:14;94607.06;;;24.51;100.00
28626;BME280;18905;42.668;23.364;2023-07-20T02:59:39;94611.09;;;24.20;100.00
28626;BME280;18905;42.668;23.364;2023-07-20T03:02:05;94690.31;;;24.46;100.00
28626;BME280;18905;42.668;23.364;2023-07-20T03:04:34;94737.09;;;25.40;100.00
28626;BME280;18905;42.668;23.364;2023-07-20T03:06:59;94613.81;;;24.77;100.00
28626;BME280;18905;42.668;23.364;2023-07-20T03:09:25;94705.41;;;25.21;100.00
28626;BME280;18905;42.668;23.364;2023-07-20T03:11:51;94687.03;;;24.85;100.00
28626;BME280;18905;42.668;23.364;2023-07-20T03:14:16;94616.41;;;24.61;100.00
28626;BME280;18905;42.668;23.364;2023-07-20T03:16:42;94599.78;;;24.64;100.00
28626;BME280;18905;42.668;23.364;2023-07-20T03:19:08;94600.59;;;24.65;100.00
28626;BME280;18905;42.668;23.364;2023-07-20T03:21:33;94643.06;;;24.97;100.00
28626;BME280;18905;42.668;23.364;2023-07-20T03:23:59;94705.72;;;25.50;100.00
28626;BME280;18905;42.668;23.364;2023-07-20T03:26:25;94628.34;;;25.04;100.00
28626;BME280;18905;42.668;23.364;2023-07-20T03:28:50;94654.34;;;25.06;100.00
28626;BME280;18905;42.668;23.364;2023-07-20T03:31:16;94711.50;;;25.36;100.00
28626;BME280;18905;42.668;23.364;2023-07-20T03:33:42;94633.03;;;25.07;100.00
28626;BME280;18905;42.668;23.364;2023-07-20T03:36:08;94716.59;;;25.60;100.00
28626;BME280;18905;42.668;23.364;2023-07-20T03:38:35;94620.66;;;24.39;100.00
28626;BME280;18905;42.668;23.364;2023-07-20T03:41:01;94755.66;;;24.86;100.00
28626;BME280;18905;42.668;23.364;2023-07-20T03:43:27;94619.41;;;23.50;100.00
28626;BME280;18905;42.668;23.364;2023-07-20T03:45:54;94644.63;;;23.48;100.00
28626;BME280;18905;42.668;23.364;2023-07-20T03:48:23;94640.75;;;23.39;100.00
28626;BME280;18905;42.668;23.364;2023-07-20T03:50:50;94611.88;;;23.13;100.00
28626;BME280;18905;42.668;23.364;2023-07-20T03:53:17;94668.94;;;23.94;100.00
28626;BME280;18905;42.668;23.364;2023-07-20T03:55:47;94648.53;;;23.84;100.00
28626;BME280;18905;42.668;23.364;2023-07-20T03:58:16;94625.25;;;23.89;100.00
28626;BME280;18905;42.668;23.364;2023-07-20T04:00:46;94662.75;;;23.83;100.00
28626;BME280;18905;42.668;23.364;2023-07-20T04:03:13;94683.16;;;24.22;100.00
28626;BME280;18905;42.668;23.364;2023-07-20T04:13:22;94637.88;;;24.20;100.00
28626;BME280;18905;42.668;23.364;2023-07-20T04:18:23;94764.00;;;25.09;100.00
28626;BME280;18905;42.668;23.364;2023-07-20T04:20:49;94667.94;;;24.41;100.00
28626;BME280;18905;42.668;23.364;2023-07-20T04:23:15;94677.22;;;24.24;100.00
28626;BME280;18905;42.668;23.364;2023-07-20T04:25:41;94754.63;;;24.10;100.00
28626;BME280;18905;42.668;23.364;2023-07-20T04:28:07;94729.25;;;23.48;100.00
28626;BME280;18905;42.668;23.364;2023-07-20T04:30:36;94624.44;;;23.14;100.00
28626;BME280;18905;42.668;23.364;2023-07-20T04:33:02;94615.13;;;23.05;100.00
28626;BME280;18905;42.668;23.364;2023-07-20T04:35:53;94747.84;;;24.18;100.00
28626;BME280;18905;42.668;23.364;2023-07-20T04:38:20;94736.47;;;24.46;100.00
28626;BME280;18905;42.668;23.364;2023-07-20T04:40:49;94736.13;;;24.74;100.00
28626;BME280;18905;42.668;23.364;2023-07-20T04:43:15;94729.75;;;24.47;100.00
28626;BME280;18905;42.668;23.364;2023-07-20T04:45:41;94731.22;;;24.55;100.00
28626;BME280;18905;42.668;23.364;2023-07-20T04:48:10;94725.31;;;24.53;100.00
28626;BME280;18905;42.668;23.364;2023-07-20T04:50:37;94716.59;;;24.88;100.00
28626;BME280;18905;42.668;23.364;2023-07-20T04:53:03;94728.69;;;25.47;100.00
28626;BME280;18905;42.668;23.364;2023-07-20T04:55:29;94734.06;;;26.00;100.00
28626;BME280;18905;42.668;23.364;2023-07-20T04:57:54;94714.56;;;26.46;100.00
28626;BME280;18905;42.668;23.364;2023-07-20T05:00:19;94723.56;;;26.89;96.97
28626;BME280;18905;42.668;23.364;2023-07-20T05:02:47;94723.66;;;26.46;100.00
28626;BME280;18905;42.668;23.364;2023-07-20T05:05:14;94717.63;;;26.32;100.00
28626;BME280;18905;42.668;23.364;2023-07-20T05:07:40;94720.28;;;26.94;99.82
28626;BME280;18905;42.668;23.364;2023-07-20T05:10:06;94724.44;;;27.53;94.88
28626;BME280;18905;42.668;23.364;2023-07-20T05:12:31;94723.00;;;27.77;96.87
28626;BME280;18905;42.668;23.364;2023-07-20T05:14:56;94727.47;;;28.19;93.73
28626;BME280;18905;42.668;23.364;2023-07-20T05:17:22;94736.97;;;27.90;96.27
28626;BME280;18905;42.668;23.364;2023-07-20T05:19:47;94738.81;;;28.25;89.14
28626;BME280;18905;42.668;23.364;2023-07-20T05:22:16;94728.63;;;27.74;91.08
28626;BME280;18905;42.668;23.364;2023-07-20T05:24:41;94717.25;;;27.24;95.11
28626;BME280;18905;42.668;23.364;2023-07-20T05:27:07;94724.94;;;27.64;92.54
28626;BME280;18905;42.668;23.364;2023-07-20T05:29:32;94729.72;;;27.80;89.35
28626;BME280;18905;42.668;23.364;2023-07-20T05:31:58;94733.00;;;27.75;91.64
28626;BME280;18905;42.668;23.364;2023-07-20T05:34:23;94744.91;;;28.20;90.16
28626;BME280;18905;42.668;23.364;2023-07-20T05:36:49;94745.41;;;27.03;91.00
28626;BME280;18905;42.668;23.364;2023-07-20T05:39:16;94719.22;;;27.55;93.51
28626;BME280;18905;42.668;23.364;2023-07-20T05:41:42;94729.59;;;28.28;86.60
28626;BME280;18905;42.668;23.364;2023-07-20T05:44:07;94751.16;;;28.65;83.37
28626;BME280;18905;42.668;23.364;2023-07-20T05:46:33;94749.28;;;29.03;81.32
28626;BME280;18905;42.668;23.364;2023-07-20T05:48:58;94758.50;;;29.50;77.87
28626;BME280;18905;42.668;23.364;2023-07-20T05:51:23;94762.50;;;29.74;79.28
28626;BME280;18905;42.668;23.364;2023-07-20T05:53:49;94751.25;;;29.90;76.95
28626;BME280;18905;42.668;23.364;2023-07-20T05:56:14;94753.00;;;29.97;78.98
28626;BME280;18905;42.668;23.364;2023-07-20T05:58:39;94751.75;;;30.10;79.81
28626;BME280;18905;42.668;23.364;2023-07-20T06:01:05;94753.16;;;29.43;76.91
28626;BME280;18905;42.668;23.364;2023-07-20T06:03:32;94733.38;;;30.13;73.67
28626;BME280;18905;42.668;23.364;2023-07-20T06:06:01;94742.16;;;30.45;71.61
28626;BME280;18905;42.668;23.364;2023-07-20T06:08:30;94747.25;;;29.66;77.02
28626;BME280;18905;42.668;23.364;2023-07-20T06:10:55;94730.59;;;30.13;74.79
28626;BME280;18905;42.668;23.364;2023-07-20T06:13:21;94745.72;;;29.53;72.00
28626;BME280;18905;42.668;23.364;2023-07-20T06:15:46;94741.19;;;30.05;71.54
28626;BME280;18905;42.668;23.364;2023-07-20T06:18:12;94745.91;;;30.30;70.13
28626;BME280;18905;42.668;23.364;2023-07-20T06:20:38;94736.31;;;29.84;75.67
28626;BME280;18905;42.668;23.364;2023-07-20T06:23:04;94714.31;;;28.77;84.39
28626;BME280;18905;42.668;23.364;2023-07-20T06:25:29;94724.25;;;29.03;78.66
28626;BME280;18905;42.668;23.364;2023-07-20T06:27:55;94724.28;;;28.62;77.17
28626;BME280;18905;42.668;23.364;2023-07-20T06:30:21;94697.34;;;29.00;75.80
28626;BME280;18905;42.668;23.364;2023-07-20T06:32:46;94687.84;;;29.60;71.99
28626;BME280;18905;42.668;23.364;2023-07-20T06:35:12;94722.78;;;29.49;75.26
28626;BME280;18905;42.668;23.364;2023-07-20T06:37:38;94715.28;;;29.83;73.71
28626;BME280;18905;42.668;23.364;2023-07-20T06:40:03;94704.19;;;30.05;71.97
28626;BME280;18905;42.668;23.364;2023-07-20T06:42:30;94703.75;;;30.06;71.58
28626;BME280;18905;42.668;23.364;2023-07-20T06:44:56;94712.53;;;29.71;75.01
28626;BME280;18905;42.668;23.364;2023-07-20T06:47:22;94717.97;;;30.21;73.17
28626;BME280;18905;42.668;23.364;2023-07-20T06:49:47;94685.41;;;30.30;70.53
28626;BME280;18905;42.668;23.364;2023-07-20T06:52:13;94704.47;;;30.53;69.15
28626;BME280;18905;42.668;23.364;2023-07-20T06:54:38;94696.63;;;30.05;69.21
28626;BME280;18905;42.668;23.364;2023-07-20T06:57:05;94721.38;;;30.03;71.15
28626;BME280;18905;42.668;23.364;2023-07-20T06:59:30;94713.72;;;30.72;69.59
28626;BME280;18905;42.668;23.364;2023-07-20T07:01:55;94696.31;;;30.03;68.38
28626;BME280;18905;42.668;23.364;2023-07-20T07:04:21;94737.03;;;30.22;67.71
28626;BME280;18905;42.668;23.364;2023-07-20T07:06:46;94750.59;;;30.97;68.18
28626;BME280;18905;42.668;23.364;2023-07-20T07:09:13;94735.94;;;30.63;66.03
28626;BME280;18905;42.668;23.364;2023-07-20T07:11:38;94754.41;;;30.91;73.12
28626;BME280;18905;42.668;23.364;2023-07-20T07:14:04;94736.47;;;30.49;65.78
28626;BME280;18905;42.668;23.364;2023-07-20T07:16:29;94721.22;;;30.19;67.66
28626;BME280;18905;42.668;23.364;2023-07-20T07:18:55;94734.59;;;29.78;72.13
28626;BME280;18905;42.668;23.364;2023-07-20T07:21:20;94782.63;;;30.03;75.96
28626;BME280;18905;42.668;23.364;2023-07-20T07:23:46;94773.53;;;29.40;78.34
28626;BME280;18905;42.668;23.364;2023-07-20T07:26:12;94767.19;;;29.27;82.23
28626;BME280;18905;42.668;23.364;2023-07-20T07:28:38;94786.66;;;29.52;76.70
28626;BME280;18905;42.668;23.364;2023-07-20T07:31:12;94774.53;;;30.30;71.56
28626;BME280;18905;42.668;23.364;2023-07-20T07:33:37;94784.38;;;30.10;72.74
28626;BME280;18905;42.668;23.364;2023-07-20T07:36:03;94777.75;;;30.84;69.81
28626;BME280;18905;42.668;23.364;2023-07-20T07:38:28;94749.44;;;31.16;62.51
28626;BME280;18905;42.668;23.364;2023-07-20T07:40:54;94770.66;;;29.56;71.62
28626;BME280;18905;42.668;23.364;2023-07-20T07:43:19;94740.31;;;30.85;68.28
28626;BME280;18905;42.668;23.364;2023-07-20T07:45:44;94776.31;;;31.01;62.74
28626;BME280;18905;42.668;23.364;2023-07-20T07:48:10;94784.38;;;30.99;64.19
28626;BME280;18905;42.668;23.364;2023-07-20T07:50:39;94771.13;;;30.48;67.77
28626;BME280;18905;42.668;23.364;2023-07-20T07:53:08;94739.00;;;29.88;74.38
28626;BME280;18905;42.668;23.364;2023-07-20T07:55:35;94713.31;;;30.39;71.23
28626;BME280;18905;42.668;23.364;2023-07-20T07:58:00;94727.78;;;31.60;63.63
28626;BME280;18905;42.668;23.364;2023-07-20T08:00:26;94728.19;;;31.31;62.38
28626;BME280;18905;42.668;23.364;2023-07-20T08:02:51;94744.38;;;31.24;66.18
28626;BME280;18905;42.668;23.364;2023-07-20T08:05:17;94730.69;;;31.47;66.16
28626;BME280;18905;42.668;23.364;2023-07-20T08:07:43;94720.09;;;31.03;66.52
28626;BME280;18905;42.668;23.364;2023-07-20T08:10:08;94761.00;;;32.24;62.29
28626;BME280;18905;42.668;23.364;2023-07-20T08:12:34;94776.66;;;31.25;66.95
28626;BME280;18905;42.668;23.364;2023-07-20T08:14:59;94784.34;;;31.51;68.44
28626;BME280;18905;42.668;23.364;2023-07-20T08:17:25;94791.75;;;31.36;71.04
28626;BME280;18905;42.668;23.364;2023-07-20T08:19:50;94770.59;;;30.40;69.88
28626;BME280;18905;42.668;23.364;2023-07-20T08:22:16;94778.22;;;31.04;71.01
28626;BME280;18905;42.668;23.364;2023-07-20T08:24:42;94766.78;;;31.11;69.73
28626;BME280;18905;42.668;23.364;2023-07-20T08:27:08;94793.06;;;31.01;73.16
28626;BME280;18905;42.668;23.364;2023-07-20T08:29:35;94771.88;;;29.80;81.97
28626;BME280;18905;42.668;23.364;2023-07-20T08:32:00;94781.78;;;30.83;79.06
28626;BME280;18905;42.668;23.364;2023-07-20T08:34:26;94758.69;;;30.40;78.46
28626;BME280;18905;42.668;23.364;2023-07-20T08:36:51;94757.84;;;29.21;83.84
28626;BME280;18905;42.668;23.364;2023-07-20T08:39:16;94779.19;;;28.71;79.76
28626;BME280;18905;42.668;23.364;2023-07-20T08:41:46;94796.34;;;29.85;71.89
28626;BME280;18905;42.668;23.364;2023-07-20T08:44:11;94781.84;;;29.03;73.95
28626;BME280;18905;42.668;23.364;2023-07-20T08:54:24;94776.41;;;29.12;72.63
28626;BME280;18905;42.668;23.364;2023-07-20T09:04:37;94685.72;;;28.35;77.28
28626;BME280;18905;42.668;23.364;2023-07-20T09:07:03;94744.94;;;30.11;70.42
28626;BME280;18905;42.668;23.364;2023-07-20T09:09:28;94750.22;;;30.86;65.30
28626;BME280;18905;42.668;23.364;2023-07-20T09:11:53;94727.22;;;29.84;67.30
28626;BME280;18905;42.668;23.364;2023-07-20T09:14:19;94769.66;;;29.63;67.08
28626;BME280;18905;42.668;23.364;2023-07-20T09:16:53;94748.63;;;29.62;69.45
28626;BME280;18905;42.668;23.364;2023-07-20T09:19:20;94759.44;;;30.06;65.02
28626;BME280;18905;42.668;23.364;2023-07-20T09:21:50;94739.94;;;30.06;61.22
28626;BME280;18905;42.668;23.364;2023-07-20T09:24:19;94712.88;;;31.14;57.28
28626;BME280;18905;42.668;23.364;2023-07-20T09:26:46;94737.03;;;30.22;58.58
28626;BME280;18905;42.668;23.364;2023-07-20T09:29:19;94740.28;;;30.42;57.14
28626;BME280;18905;42.668;23.364;2023-07-20T09:31:59;94700.84;;;30.96;54.71
28626;BME280;18905;42.668;23.364;2023-07-20T09:34:25;94710.16;;;29.94;56.01
28626;BME280;18905;42.668;23.364;2023-07-20T09:36:51;94730.94;;;30.15;59.43
28626;BME280;18905;42.668;23.364;2023-07-20T09:39:17;94730.09;;;30.48;58.07
28626;BME280;18905;42.668;23.364;2023-07-20T09:41:42;94716.00;;;30.09;57.34
28626;BME280;18905;42.668;23.364;2023-07-20T09:44:10;94738.97;;;30.68;58.39
28626;BME280;18905;42.668;23.364;2023-07-20T09:46:48;94738.22;;;30.55;58.58
28626;BME280;18905;42.668;23.364;2023-07-20T09:49:14;94736.59;;;30.24;57.54
28626;BME280;18905;42.668;23.364;2023-07-20T09:51:40;94724.44;;;30.73;53.61
28626;BME280;18905;42.668;23.364;2023-07-20T09:54:07;94715.88;;;30.68;54.49
28626;BME280;18905;42.668;23.364;2023-07-20T09:56:33;94681.59;;;30.80;54.65
28626;BME280;18905;42.668;23.364;2023-07-20T09:58:58;94700.63;;;31.42;50.46
28626;BME280;18905;42.668;23.364;2023-07-20T10:01:26;94699.81;;;31.99;47.35
28626;BME280;18905;42.668;23.364;2023-07-20T10:03:54;94677.19;;;32.06;46.64
28626;BME280;18905;42.668;23.364;2023-07-20T10:06:24;94688.22;;;31.43;45.25
28626;BME280;18905;42.668;23.364;2023-07-20T10:08:53;94686.19;;;32.19;43.78
28626;BME280;18905;42.668;23.364;2023-07-20T10:11:21;94685.50;;;31.70;44.43
28626;BME280;18905;42.668;23.364;2023-07-20T10:13:51;94703.88;;;32.25;44.59
28626;BME280;18905;42.668;23.364;2023-07-20T10:16:22;94714.63;;;31.60;44.70
28626;BME280;18905;42.668;23.364;2023-07-20T10:19:11;94711.56;;;30.97;48.65
28626;BME280;18905;42.668;23.364;2023-07-20T10:21:42;94715.31;;;30.05;51.54
28626;BME280;18905;42.668;23.364;2023-07-20T10:24:13;94713.19;;;30.86;49.92
28626;BME280;18905;42.668;23.364;2023-07-20T10:26:38;94716.81;;;30.52;50.46
28626;BME280;18905;42.668;23.364;2023-07-20T10:29:04;94724.88;;;30.50;53.33
28626;BME280;18905;42.668;23.364;2023-07-20T10:31:31;94724.44;;;31.04;51.53
28626;BME280;18905;42.668;23.364;2023-07-20T10:33:57;94721.88;;;29.77;56.29
28626;BME280;18905;42.668;23.364;2023-07-20T10:36:26;94670.53;;;29.90;57.35
28626;BME280;18905;42.668;23.364;2023-07-20T10:38:54;94676.03;;;30.58;55.03
28626;BME280;18905;42.668;23.364;2023-07-20T10:43:47;94708.41;;;30.43;50.38
28626;BME280;18905;42.668;23.364;2023-07-20T10:46:13;94707.63;;;30.09;51.55
28626;BME280;18905;42.668;23.364;2023-07-20T10:49:01;94689.75;;;29.97;52.93
28626;BME280;18905;42.668;23.364;2023-07-20T10:51:28;94642.28;;;29.79;51.98
28626;BME280;18905;42.668;23.364;2023-07-20T10:53:57;94624.41;;;29.21;56.84
28626;BME280;18905;42.668;23.364;2023-07-20T10:56:26;94652.31;;;30.32;53.27
28626;BME280;18905;42.668;23.364;2023-07-20T10:58:57;94655.63;;;29.38;59.04
28626;BME280;18905;42.668;23.364;2023-07-20T11:01:28;94667.94;;;30.82;55.32
28626;BME280;18905;42.668;23.364;2023-07-20T11:03:57;94659.38;;;30.98;51.73
28626;BME280;18905;42.668;23.364;2023-07-20T11:08:55;94638.72;;;32.01;47.21
28626;BME280;18905;42.668;23.364;2023-07-20T11:11:27;94628.78;;;32.45;46.07
28626;BME280;18905;42.668;23.364;2023-07-20T11:14:00;94638.00;;;32.78;44.66
28626;BME280;18905;42.668;23.364;2023-07-20T11:16:43;94642.78;;;33.37;46.68
28626;BME280;18905;42.668;23.364;2023-07-20T11:19:25;94640.59;;;32.04;51.71
28626;BME280;18905;42.668;23.364;2023-07-20T11:21:57;94638.66;;;31.74;50.32
28626;BME280;18905;42.668;23.364;2023-07-20T11:24:24;94625.84;;;32.04;49.41
28626;BME280;18905;42.668;23.364;2023-07-20T11:26:51;94630.63;;;32.12;48.81
28626;BME280;18905;42.668;23.364;2023-07-20T11:29:18;94621.88;;;32.73;47.09
28626;BME280;18905;42.668;23.364;2023-07-20T11:31:45;94614.81;;;32.45;49.71
28626;BME280;18905;42.668;23.364;2023-07-20T11:34:16;94614.19;;;32.14;51.32
28626;BME280;18905;42.668;23.364;2023-07-20T11:36:44;94621.00;;;32.22;54.36
28626;BME280;18905;42.668;23.364;2023-07-20T11:39:10;94618.03;;;31.72;51.31
28626;BME280;18905;42.668;23.364;2023-07-20T11:41:36;94608.59;;;31.69;53.27
28626;BME280;18905;42.668;23.364;2023-07-20T11:44:04;94604.75;;;31.85;53.16
28626;BME280;18905;42.668;23.364;2023-07-20T11:46:31;94587.19;;;32.20;50.12
28626;BME280;18905;42.668;23.364;2023-07-20T11:48:58;94605.94;;;32.47;50.49
28626;BME280;18905;42.668;23.364;2023-07-20T11:51:28;94595.06;;;32.99;48.38
28626;BME280;18905;42.668;23.364;2023-07-20T11:53:53;94601.16;;;33.21;48.51
28626;BME280;18905;42.668;23.364;2023-07-20T11:56:19;94598.53;;;32.85;49.37
28626;BME280;18905;42.668;23.364;2023-07-20T11:58:45;94576.00;;;32.38;49.18
28626;BME280;18905;42.668;23.364;2023-07-20T12:01:15;94586.81;;;32.54;51.02
28626;BME280;18905;42.668;23.364;2023-07-20T12:03:42;94570.91;;;32.10;52.13
28626;BME280;18905;42.668;23.364;2023-07-20T12:06:10;94569.47;;;32.41;48.54
28626;BME280;18905;42.668;23.364;2023-07-20T12:08:40;94581.59;;;32.38;50.24
28626;BME280;18905;42.668;23.364;2023-07-20T12:11:07;94571.47;;;33.00;48.26
28626;BME280;18905;42.668;23.364;2023-07-20T12:13:40;94573.00;;;33.01;46.17
28626;BME280;18905;42.668;23.364;2023-07-20T12:16:11;94570.72;;;33.70;46.98
28626;BME280;18905;42.668;23.364;2023-07-20T12:18:37;94566.00;;;33.29;46.05
28626;BME280;18905;42.668;23.364;2023-07-20T12:21:02;94564.75;;;34.15;43.65
28626;BME280;18905;42.668;23.364;2023-07-20T12:23:38;94554.78;;;34.00;44.79
28626;BME280;18905;42.668;23.364;2023-07-20T12:26:06;94557.50;;;34.23;42.52
28626;BME280;18905;42.668;23.364;2023-07-20T12:28:32;94562.00;;;33.92;43.05
28626;BME280;18905;42.668;23.364;2023-07-20T12:30:58;94560.47;;;33.91;43.65
28626;BME280;18905;42.668;23.364;2023-07-20T12:33:23;94570.13;;;33.43;42.75
28626;BME280;18905;42.668;23.364;2023-07-20T12:35:49;94564.25;;;33.64;42.87
28626;BME280;18905;42.668;23.364;2023-07-20T12:38:15;94568.78;;;33.76;40.27
28626;BME280;18905;42.668;23.364;2023-07-20T12:40:41;94562.47;;;32.96;41.56
28626;BME280;18905;42.668;23.364;2023-07-20T12:43:07;94553.47;;;32.92;42.44
28626;BME280;18905;42.668;23.364;2023-07-20T12:45:33;94548.44;;;34.28;40.74
28626;BME280;18905;42.668;23.364;2023-07-20T12:47:59;94534.84;;;34.99;39.02
28626;BME280;18905;42.668;23.364;2023-07-20T12:50:24;94534.28;;;34.95;37.40
28626;BME280;18905;42.668;23.364;2023-07-20T12:52:50;94529.69;;;34.63;36.78
28626;BME280;18905;42.668;23.364;2023-07-20T12:55:15;94555.53;;;34.00;37.17
28626;BME280;18905;42.668;23.364;2023-07-20T12:57:41;94512.66;;;34.81;36.39
28626;BME280;18905;42.668;23.364;2023-07-20T13:00:09;94539.66;;;35.13;35.99
28626;BME280;18905;42.668;23.364;2023-07-20T13:02:35;94547.50;;;34.31;36.49
28626;BME280;18905;42.668;23.364;2023-07-20T13:05:02;94532.38;;;34.14;36.75
28626;BME280;18905;42.668;23.364;2023-07-20T13:07:32;94541.56;;;34.15;39.47
28626;BME280;18905;42.668;23.364;2023-07-20T13:09:58;94531.31;;;34.70;38.24
28626;BME280;18905;42.668;23.364;2023-07-20T13:12:29;94522.13;;;34.84;37.46
28626;BME280;18905;42.668;23.364;2023-07-20T13:14:55;94530.47;;;34.49;38.78
28626;BME280;18905;42.668;23.364;2023-07-20T13:17:24;94521.19;;;34.43;38.49
28626;BME280;18905;42.668;23.364;2023-07-20T13:19:49;94521.00;;;34.32;39.12
28626;BME280;18905;42.668;23.364;2023-07-20T13:22:15;94521.84;;;34.53;38.31
28626;BME280;18905;42.668;23.364;2023-07-20T13:24:41;94531.03;;;34.68;38.37
28626;BME280;18905;42.668;23.364;2023-07-20T13:27:06;94537.03;;;34.61;39.17
28626;BME280;18905;42.668;23.364;2023-07-20T13:29:32;94531.09;;;35.57;38.19